Aviation Digital Data Service (ADDS)

Output produced by METARs form (1831 UTC 27 July 2017)
found at http://aviationweather.gov/adds/metars/
 
KPBG 271735Z 2718/2818 17008KT P6SM VCSH OVC025 
     TEMPO 2718/2721 BKN035 
     FM272200 23005KT P6SM VCSH BKN070 
     FM280000 VRB03KT P6SM BKN080 
     FM280900 32005KT P6SM BKN030 
     FM281300 35005KT P6SM SCT035